createdAt,value
2019-05-17T00:02:10.975Z,10.07
2019-05-17T00:04:38.099Z,10.10
2019-05-17T00:07:06.613Z,10.13
2019-05-17T00:09:33.938Z,10.21
2019-05-17T00:12:01.142Z,10.25
2019-05-17T00:14:28.694Z,10.27
2019-05-17T00:16:57.284Z,10.27
2019-05-17T00:19:26.309Z,10.27
2019-05-17T00:21:53.518Z,10.30
2019-05-17T00:24:20.804Z,10.30
2019-05-17T00:26:48.079Z,10.33
2019-05-17T00:29:17.300Z,10.33
2019-05-17T00:31:46.178Z,10.34
2019-05-17T00:34:13.711Z,10.34
2019-05-17T00:36:40.835Z,10.34
2019-05-17T00:39:08.082Z,10.33
2019-05-17T00:41:37.443Z,10.34
2019-05-17T00:44:06.307Z,10.35
2019-05-17T00:46:33.608Z,10.35
2019-05-17T00:49:00.818Z,10.36
2019-05-17T00:51:28.031Z,10.37
2019-05-17T00:53:56.212Z,10.38
2019-05-17T00:56:23.521Z,10.38
2019-05-17T00:58:50.711Z,10.38
2019-05-17T01:01:18.007Z,10.41
2019-05-17T01:03:47.547Z,10.53
2019-05-17T01:06:16.784Z,10.42
2019-05-17T01:08:43.796Z,10.35
2019-05-17T01:11:11.014Z,10.35
2019-05-17T01:13:38.195Z,10.44
2019-05-17T01:16:07.301Z,10.40
2019-05-17T01:18:36.165Z,10.39
2019-05-17T01:21:03.346Z,10.39
2019-05-17T01:23:30.612Z,10.36
2019-05-17T01:25:57.834Z,10.45
2019-05-17T01:28:26.989Z,10.39
2019-05-17T01:30:54.241Z,10.34
2019-05-17T01:33:21.388Z,10.37
2019-05-17T01:35:48.511Z,10.35
2019-05-17T01:38:17.703Z,10.37
2019-05-17T01:40:46.367Z,10.39
2019-05-17T01:43:13.614Z,10.39
2019-05-17T01:45:41.133Z,10.44
2019-05-17T01:48:08.211Z,10.44
2019-05-17T01:50:37.456Z,10.42
2019-05-17T01:53:04.590Z,10.39
2019-05-17T01:55:31.698Z,10.38
2019-05-17T01:57:58.915Z,10.39
2019-05-17T02:00:26.671Z,10.42
2019-05-17T02:02:54.826Z,10.43
2019-05-17T02:05:22.020Z,10.44
2019-05-17T02:07:49.493Z,10.39
2019-05-17T02:10:18.023Z,10.39
2019-05-17T02:12:48.746Z,10.37
2019-05-17T02:15:18.185Z,10.48
2019-05-17T02:17:46.914Z,10.45
2019-05-17T02:20:16.858Z,10.41
2019-05-17T02:22:43.710Z,10.37
2019-05-17T02:25:11.386Z,10.37
2019-05-17T02:27:41.902Z,10.39
2019-05-17T02:30:14.025Z,10.38
2019-05-17T02:32:43.093Z,10.33
2019-05-17T02:35:14.316Z,10.32
2019-05-17T02:37:43.309Z,10.32
2019-05-17T02:40:14.567Z,10.35
2019-05-17T02:42:43.116Z,10.35
2019-05-17T02:45:09.426Z,10.31
2019-05-17T02:47:36.921Z,10.29
2019-05-17T02:50:05.957Z,10.24
2019-05-17T02:52:33.220Z,10.22
2019-05-17T02:55:03.672Z,10.21
2019-05-17T02:57:29.654Z,10.16
2019-05-17T02:59:56.857Z,10.15
2019-05-17T03:02:27.729Z,10.10
2019-05-17T03:04:53.445Z,10.11
2019-05-17T03:07:23.251Z,10.16
2019-05-17T03:09:49.733Z,10.30
2019-05-17T03:12:16.934Z,10.14
2019-05-17T03:14:44.095Z,10.02
2019-05-17T03:17:14.061Z,9.99
2019-05-17T03:19:43.589Z,9.95
2019-05-17T03:22:12.882Z,9.93
2019-05-17T03:24:38.715Z,9.90
2019-05-17T03:27:05.911Z,9.88
2019-05-17T03:29:33.651Z,9.93
2019-05-17T03:32:08.071Z,9.89
2019-05-17T03:34:36.409Z,9.86
2019-05-17T03:37:05.465Z,9.89
2019-05-17T03:39:29.142Z,9.86
2019-05-17T03:41:56.428Z,9.84
2019-05-17T03:44:23.677Z,9.85
2019-05-17T03:46:53.256Z,9.80
2019-05-17T03:49:22.385Z,9.82
2019-05-17T03:51:53.199Z,9.81
2019-05-17T03:54:22.672Z,9.85
2019-05-17T03:56:53.014Z,9.88
2019-05-17T03:59:18.826Z,9.91
2019-05-17T04:01:46.020Z,9.88
2019-05-17T04:04:13.610Z,9.94
2019-05-17T04:06:43.505Z,9.93
2019-05-17T04:09:13.404Z,9.94
2019-05-17T04:11:39.120Z,9.94
2019-05-17T04:14:06.265Z,9.97
2019-05-17T04:16:34.142Z,10.01
2019-05-17T04:19:03.186Z,9.99
2019-05-17T04:21:33.901Z,9.97
2019-05-17T04:24:02.986Z,9.91
2019-05-17T04:26:28.708Z,9.98
2019-05-17T04:28:55.933Z,9.92
2019-05-17T04:31:23.158Z,9.93
2019-05-17T04:33:53.347Z,9.94
2019-05-17T04:36:22.256Z,10.01
2019-05-17T04:38:48.802Z,10.11
2019-05-17T04:41:16.000Z,10.22
2019-05-17T04:43:43.205Z,10.22
2019-05-17T04:46:12.921Z,10.28
2019-05-17T04:48:39.474Z,10.36
2019-05-17T04:51:06.559Z,10.44
2019-05-17T04:53:33.847Z,10.53
2019-05-17T04:56:03.150Z,10.62
2019-05-17T04:58:33.560Z,10.73
2019-05-17T05:00:59.929Z,10.81
2019-05-17T05:03:27.066Z,10.88
2019-05-17T05:05:54.186Z,10.95
2019-05-17T05:08:22.439Z,11.07
2019-05-17T05:10:53.165Z,11.06
2019-05-17T05:13:18.939Z,10.97
2019-05-17T05:15:46.178Z,11.11
2019-05-17T05:18:13.800Z,11.09
2019-05-17T05:20:43.470Z,11.04
2019-05-17T05:23:13.014Z,10.94
2019-05-17T05:25:39.553Z,10.97
2019-05-17T05:28:06.770Z,10.89
2019-05-17T05:30:34.029Z,10.88
2019-05-17T05:33:02.041Z,10.88
2019-05-17T05:35:29.287Z,10.96
2019-05-17T05:37:56.572Z,11.06
2019-05-17T05:40:23.787Z,11.14
2019-05-17T05:42:51.607Z,11.17
2019-05-17T05:45:18.884Z,11.10
2019-05-17T05:47:46.024Z,11.11
2019-05-17T05:50:13.387Z,11.13
2019-05-17T06:02:21.765Z,11.25
2019-05-17T06:04:51.684Z,11.30
2019-05-17T06:07:18.301Z,11.36
2019-05-17T06:09:45.499Z,11.46
2019-05-17T06:12:22.914Z,11.62
2019-05-17T06:14:42.206Z,11.67
2019-05-17T06:17:09.418Z,11.76
2019-05-17T06:19:36.594Z,11.90
2019-05-17T06:22:04.097Z,11.98
2019-05-17T06:24:31.926Z,12.15
2019-05-17T06:26:59.172Z,12.15
2019-05-17T06:29:26.411Z,12.02
2019-05-17T06:31:53.842Z,11.93
2019-05-17T06:34:22.304Z,11.77
2019-05-17T06:36:49.629Z,11.70
2019-05-17T06:39:16.839Z,11.70
2019-05-17T06:41:44.015Z,11.74
2019-05-17T06:44:12.176Z,11.82
2019-05-17T06:46:41.920Z,11.77
2019-05-17T06:49:08.688Z,11.72
2019-05-17T06:51:35.872Z,11.77
2019-05-17T06:54:03.360Z,11.80
2019-05-17T06:56:32.192Z,11.82
2019-05-17T06:58:59.840Z,11.82
2019-05-17T07:01:29.138Z,11.82
2019-05-17T07:03:56.140Z,11.86
2019-05-17T07:06:25.245Z,11.92
2019-05-17T07:08:52.373Z,11.89
2019-05-17T07:11:21.098Z,11.89
2019-05-17T07:13:49.592Z,11.83
2019-05-17T07:16:16.874Z,11.95
2019-05-17T07:18:43.925Z,11.99
2019-05-17T07:21:11.121Z,12.10
2019-05-17T07:23:39.647Z,12.15
2019-05-17T07:26:09.197Z,12.18
2019-05-17T07:28:36.077Z,12.24
2019-05-17T07:31:03.501Z,12.43
2019-05-17T07:33:30.740Z,12.51
2019-05-17T07:35:59.537Z,12.64
2019-05-17T07:38:26.932Z,12.63
2019-05-17T07:40:54.121Z,12.56
2019-05-17T07:43:21.289Z,12.60
2019-05-17T07:45:49.616Z,12.73
2019-05-17T07:48:17.119Z,12.94
2019-05-17T07:50:44.326Z,13.09
2019-05-17T07:53:11.755Z,13.21
2019-05-17T07:55:39.814Z,13.30
2019-05-17T07:58:09.714Z,13.32
2019-05-17T08:00:36.510Z,13.46
2019-05-17T08:03:03.695Z,13.53
2019-05-17T08:05:30.798Z,13.53
2019-05-17T08:08:00.009Z,13.62
2019-05-17T08:10:29.813Z,13.78
2019-05-17T08:12:56.726Z,13.90
2019-05-17T08:15:24.062Z,14.07
2019-05-17T08:17:51.167Z,14.38
2019-05-17T08:20:20.386Z,14.46
2019-05-17T08:22:50.048Z,14.58
2019-05-17T08:25:17.029Z,14.90
2019-05-17T08:27:44.245Z,15.26
2019-05-17T08:30:12.634Z,15.34
2019-05-17T08:32:40.455Z,15.49
2019-05-17T08:35:10.570Z,15.84
2019-05-17T08:37:36.949Z,15.92
2019-05-17T08:40:04.384Z,16.07
2019-05-17T08:42:31.473Z,16.81
2019-05-17T08:45:00.232Z,17.38
2019-05-17T08:47:29.879Z,18.66
2019-05-17T08:49:56.661Z,20.41
2019-05-17T08:52:23.887Z,21.83
2019-05-17T08:54:51.105Z,22.84
2019-05-17T08:57:20.534Z,23.45
2019-05-17T08:59:49.605Z,23.53
2019-05-17T09:02:16.663Z,22.91
2019-05-17T09:04:43.832Z,22.53
2019-05-17T09:07:11.134Z,22.56
2019-05-17T09:09:39.494Z,23.31
2019-05-17T09:12:06.788Z,23.55
2019-05-17T09:14:34.133Z,22.66
2019-05-17T09:17:01.365Z,22.84
2019-05-17T09:19:29.967Z,22.80
2019-05-17T09:21:59.747Z,22.98
2019-05-17T09:24:26.993Z,22.56
2019-05-17T09:26:54.274Z,22.66
2019-05-17T09:29:21.401Z,22.52
2019-05-17T09:31:50.494Z,21.93
2019-05-17T09:34:17.759Z,21.74
2019-05-17T09:36:45.008Z,21.31
2019-05-17T09:39:12.187Z,21.29
2019-05-17T09:41:39.900Z,21.95
2019-05-17T09:44:13.045Z,22.35
2019-05-17T09:46:36.722Z,23.01
2019-05-17T09:49:04.100Z,24.06
2019-05-17T09:51:31.461Z,24.50
2019-05-17T09:54:00.030Z,24.71
2019-05-17T09:56:29.910Z,24.07
2019-05-17T09:58:57.313Z,24.18
2019-05-17T10:01:24.513Z,24.75
2019-05-17T10:03:51.777Z,25.10
2019-05-17T10:06:20.055Z,25.15
2019-05-17T10:08:49.341Z,24.12
2019-05-17T10:11:16.797Z,23.52
2019-05-17T10:13:44.007Z,23.91
2019-05-17T10:16:11.163Z,24.55
2019-05-17T10:18:40.085Z,25.04
2019-05-17T10:21:07.309Z,24.76
2019-05-17T10:23:34.507Z,23.48
2019-05-17T10:26:02.279Z,22.35
2019-05-17T10:28:29.791Z,22.01
2019-05-17T10:30:57.046Z,21.52
2019-05-17T10:33:24.212Z,21.66
2019-05-17T10:35:51.443Z,21.98
2019-05-17T10:38:19.511Z,21.80
2019-05-17T10:40:47.282Z,21.32
2019-05-17T10:43:14.488Z,20.30
2019-05-17T10:45:41.711Z,19.69
2019-05-17T10:48:10.238Z,19.62
2019-05-17T10:50:40.432Z,20.02
2019-05-17T10:53:06.796Z,20.32
2019-05-17T10:55:34.007Z,20.15
2019-05-17T10:58:01.262Z,19.70
2019-05-17T11:00:30.310Z,19.95
2019-05-17T11:03:00.216Z,20.16
2019-05-17T11:05:26.927Z,20.47
2019-05-17T11:07:54.128Z,20.47
2019-05-17T11:10:21.426Z,20.34
2019-05-17T11:12:48.744Z,20.32
2019-05-17T11:15:16.004Z,20.45
2019-05-17T11:17:43.079Z,20.70
2019-05-17T11:20:11.210Z,20.56
2019-05-17T11:22:38.428Z,20.76
2019-05-17T11:25:06.571Z,21.45
2019-05-17T11:27:33.804Z,21.23
2019-05-17T11:30:01.008Z,20.87
2019-05-17T11:32:28.188Z,20.58
2019-05-17T11:34:55.664Z,20.28
2019-05-17T11:37:25.428Z,20.35
2019-05-17T11:39:52.560Z,20.56
2019-05-17T11:42:19.932Z,20.40
2019-05-17T11:44:47.031Z,20.39
2019-05-17T11:47:14.368Z,20.14
2019-05-17T11:49:41.609Z,19.83
2019-05-17T11:52:08.822Z,19.65
2019-05-17T11:54:36.488Z,19.36
2019-05-17T11:57:03.761Z,19.49
2019-05-17T11:59:30.996Z,19.52
2019-05-17T12:01:58.306Z,19.83
2019-05-17T12:04:25.526Z,19.73
2019-05-17T12:06:52.742Z,19.85
2019-05-17T12:09:20.111Z,20.05
2019-05-17T12:11:47.488Z,20.13
2019-05-17T12:14:14.862Z,19.70
2019-05-17T12:16:42.562Z,19.33
2019-05-17T12:19:10.238Z,19.14
2019-05-17T12:21:37.461Z,18.76
2019-05-17T12:24:04.816Z,18.51
2019-05-17T12:26:32.208Z,18.45
2019-05-17T12:28:59.903Z,18.70
2019-05-17T12:31:28.198Z,18.82
2019-05-17T12:33:55.642Z,19.01
2019-05-17T12:36:22.969Z,19.47
2019-05-17T12:38:50.314Z,19.24
2019-05-17T12:41:17.808Z,19.24
2019-05-17T12:43:45.171Z,18.91
2019-05-17T12:46:12.505Z,18.96
2019-05-17T12:48:40.220Z,18.89
2019-05-17T12:51:07.516Z,18.94
2019-05-17T12:53:34.721Z,18.98
2019-05-17T12:56:01.907Z,19.11
2019-05-17T12:58:29.228Z,19.51
2019-05-17T13:00:56.486Z,19.56
2019-05-17T13:03:23.643Z,19.49
2019-05-17T13:05:52.097Z,19.59
2019-05-17T13:08:19.212Z,19.69
2019-05-17T13:10:46.442Z,20.14
2019-05-17T13:13:13.737Z,20.13
2019-05-17T13:15:40.938Z,19.83
2019-05-17T13:18:08.066Z,19.63
2019-05-17T13:20:35.154Z,19.79
2019-05-17T13:23:02.863Z,19.83
2019-05-17T13:25:30.369Z,20.00
2019-05-17T13:27:57.587Z,20.04
2019-05-17T13:30:24.778Z,20.33
2019-05-17T13:32:52.323Z,20.05
2019-05-17T13:35:19.480Z,19.76
2019-05-17T13:37:46.676Z,19.57
2019-05-17T13:40:14.082Z,19.66
2019-05-17T13:42:41.320Z,19.75
2019-05-17T13:45:09.592Z,20.12
2019-05-17T13:47:36.967Z,20.48
2019-05-17T13:50:04.966Z,20.63
2019-05-17T13:52:32.166Z,20.47
2019-05-17T13:54:59.363Z,20.27
2019-05-17T13:57:26.587Z,19.99
2019-05-17T13:59:53.758Z,19.92
2019-05-17T14:02:21.034Z,19.76
2019-05-17T14:04:48.114Z,19.58
2019-05-17T14:07:15.324Z,20.04
2019-05-17T14:09:42.556Z,20.44
2019-05-17T14:12:09.757Z,20.49
2019-05-17T14:14:36.986Z,20.29
2019-05-17T14:17:04.170Z,20.16
2019-05-17T14:19:31.503Z,20.39
2019-05-17T14:21:58.710Z,20.53
2019-05-17T14:24:25.929Z,20.34
2019-05-17T14:26:53.183Z,20.70
2019-05-17T14:29:20.758Z,20.63
2019-05-17T14:31:48.128Z,20.58
2019-05-17T14:34:15.386Z,20.63
2019-05-17T14:36:42.571Z,20.62
2019-05-17T14:39:09.804Z,20.44
2019-05-17T14:41:37.127Z,20.60
2019-05-17T14:44:04.320Z,20.80
2019-05-17T14:46:31.578Z,21.20
2019-05-17T14:48:58.759Z,21.18
2019-05-17T14:51:26.557Z,21.13
2019-05-17T14:53:53.819Z,21.01
2019-05-17T14:56:21.081Z,20.72
2019-05-17T14:58:48.256Z,20.61
2019-05-17T15:01:15.499Z,20.85
2019-05-17T15:03:42.723Z,20.81
2019-05-17T15:06:09.948Z,20.96
2019-05-17T15:08:37.121Z,21.22
2019-05-17T15:11:04.286Z,21.20
2019-05-17T15:13:31.541Z,20.84
2019-05-17T15:15:58.789Z,20.85
2019-05-17T15:18:25.966Z,20.89
2019-05-17T15:20:53.110Z,20.83
2019-05-17T15:23:20.336Z,20.77
2019-05-17T15:25:47.617Z,20.57
2019-05-17T15:28:14.806Z,20.60
2019-05-17T15:30:42.093Z,20.58
2019-05-17T15:33:09.569Z,20.65
2019-05-17T15:35:36.715Z,20.70
2019-05-17T15:38:04.009Z,20.54
2019-05-17T15:40:31.224Z,20.21
2019-05-17T15:42:58.399Z,19.92
2019-05-17T15:45:25.639Z,19.68
2019-05-17T15:47:52.767Z,19.65
2019-05-17T15:50:20.213Z,19.60
2019-05-17T15:52:47.407Z,19.54
2019-05-17T15:55:14.724Z,19.53
2019-05-17T15:57:41.903Z,19.63
2019-05-17T16:00:10.048Z,19.67
2019-05-17T16:02:37.263Z,19.57
2019-05-17T16:05:05.389Z,19.42
2019-05-17T16:07:32.615Z,19.11
2019-05-17T16:09:59.850Z,18.90
2019-05-17T16:13:00.935Z,18.78
2019-05-17T16:15:15.728Z,18.71
2019-05-17T16:17:42.800Z,18.71
2019-05-17T16:20:10.520Z,18.67
2019-05-17T16:22:37.812Z,18.62
2019-05-17T16:25:05.395Z,18.65
2019-05-17T16:27:32.648Z,18.63
2019-05-17T16:30:00.119Z,18.63
2019-05-17T16:32:27.348Z,18.65
2019-05-17T16:34:54.480Z,18.60
2019-05-17T16:37:21.578Z,18.68
2019-05-17T16:39:49.094Z,18.64
2019-05-17T16:42:16.466Z,18.60
2019-05-17T16:44:43.682Z,18.57
2019-05-17T16:47:11.691Z,18.55
2019-05-17T16:49:39.009Z,18.54
2019-05-17T16:52:06.239Z,18.64
2019-05-17T16:54:33.530Z,18.57
2019-05-17T16:57:00.769Z,18.54
2019-05-17T16:59:28.355Z,18.49
2019-05-17T17:01:55.846Z,18.49
2019-05-17T17:04:23.698Z,18.45
2019-05-17T17:06:50.895Z,18.46
2019-05-17T17:09:18.113Z,18.42
2019-05-17T17:11:45.820Z,18.39
2019-05-17T17:14:13.042Z,18.35
2019-05-17T17:16:40.285Z,18.32
2019-05-17T17:19:07.460Z,18.31
2019-05-17T17:21:34.693Z,18.29
2019-05-17T17:24:01.806Z,18.33
2019-05-17T17:26:29.122Z,18.42
2019-05-17T17:28:56.345Z,18.45
2019-05-17T17:31:23.795Z,18.48
2019-05-17T17:33:50.977Z,18.38
2019-05-17T17:36:19.527Z,18.37
2019-05-17T17:38:47.088Z,18.22
2019-05-17T17:41:14.372Z,18.12
2019-05-17T17:43:41.576Z,18.15
2019-05-17T17:46:08.792Z,18.10
2019-05-17T17:48:36.028Z,18.05
2019-05-17T17:51:03.241Z,18.08
2019-05-17T17:53:31.096Z,18.09
2019-05-17T17:55:58.270Z,18.25
2019-05-17T17:58:25.430Z,18.33
2019-05-17T18:00:52.541Z,18.28
2019-05-17T18:03:19.735Z,18.30
2019-05-17T18:05:46.893Z,18.22
2019-05-17T18:08:14.132Z,18.09
2019-05-17T18:10:41.304Z,18.12
2019-05-17T18:13:08.474Z,18.05
2019-05-17T18:15:41.330Z,17.92
2019-05-17T18:18:08.598Z,17.78
2019-05-17T18:20:35.706Z,17.84
2019-05-17T18:23:03.153Z,17.80
2019-05-17T18:25:30.370Z,17.75
2019-05-17T18:27:57.586Z,17.57
2019-05-17T18:30:24.703Z,17.42
2019-05-17T18:32:51.944Z,17.30
2019-05-17T18:35:19.682Z,17.18
2019-05-17T18:37:47.186Z,17.07
2019-05-17T18:40:14.398Z,16.97
2019-05-17T18:42:41.569Z,16.85
2019-05-17T18:45:09.057Z,16.74
2019-05-17T18:47:36.257Z,16.66
2019-05-17T18:50:03.850Z,16.53
2019-05-17T18:52:31.329Z,16.47
2019-05-17T18:54:58.585Z,16.41
2019-05-17T18:57:26.104Z,16.32
2019-05-17T18:59:53.316Z,16.23
2019-05-17T19:02:20.521Z,16.14
2019-05-17T19:04:47.699Z,16.11
2019-05-17T19:07:14.911Z,16.05
2019-05-17T19:09:42.443Z,15.92
2019-05-17T19:12:09.631Z,15.87
2019-05-17T19:14:43.087Z,15.77
2019-05-17T19:17:05.957Z,15.68
2019-05-17T19:19:33.409Z,15.60
2019-05-17T19:22:00.621Z,15.54
2019-05-17T19:24:28.052Z,15.46
2019-05-17T19:26:55.550Z,15.40
2019-05-17T19:29:22.644Z,15.34
2019-05-17T19:31:49.979Z,15.29
2019-05-17T19:34:17.088Z,15.28
2019-05-17T19:36:44.274Z,15.30
2019-05-17T19:39:11.804Z,15.24
2019-05-17T19:41:39.020Z,15.19
2019-05-17T19:44:06.250Z,15.13
2019-05-17T19:46:34.702Z,15.13
2019-05-17T19:49:01.798Z,15.08
2019-05-17T19:51:29.072Z,15.03
2019-05-17T19:53:56.364Z,14.99
2019-05-17T19:56:23.820Z,15.00
2019-05-17T19:58:51.021Z,14.96
2019-05-17T20:01:18.276Z,14.96
2019-05-17T20:03:46.086Z,14.94
2019-05-17T20:06:13.559Z,14.90
2019-05-17T20:08:40.762Z,14.89
2019-05-17T20:11:07.840Z,14.85
2019-05-17T20:13:35.008Z,14.84
2019-05-17T20:16:02.155Z,14.82
2019-05-17T20:18:29.654Z,14.83
2019-05-17T20:20:56.780Z,14.83
2019-05-17T20:23:24.312Z,15.01
2019-05-17T20:25:51.513Z,15.29
2019-05-17T20:28:18.948Z,15.14
2019-05-17T20:30:46.200Z,15.11
2019-05-17T20:33:13.273Z,15.09
2019-05-17T20:35:40.387Z,15.10
2019-05-17T20:38:07.608Z,15.19
2019-05-17T20:40:35.134Z,15.21
2019-05-17T20:43:02.344Z,15.19
2019-05-17T20:45:33.047Z,15.19
2019-05-17T20:47:58.894Z,15.23
2019-05-17T20:50:26.106Z,15.21
2019-05-17T20:52:53.239Z,15.23
2019-05-17T20:55:20.499Z,15.29
2019-05-17T20:57:47.700Z,15.36
2019-05-17T21:00:15.425Z,15.46
2019-05-17T21:02:42.700Z,15.38
2019-05-17T21:05:12.077Z,15.42
2019-05-17T21:07:39.326Z,15.40
2019-05-17T21:10:07.039Z,15.48
2019-05-17T21:12:34.243Z,15.48
2019-05-17T21:15:01.456Z,15.52
2019-05-17T21:17:28.652Z,15.55
2019-05-17T21:19:55.848Z,15.54
2019-05-17T21:22:23.072Z,15.40
2019-05-17T21:24:50.259Z,15.27
2019-05-17T21:27:17.441Z,15.27
2019-05-17T21:29:44.975Z,15.22
2019-05-17T21:32:12.134Z,15.14
2019-05-17T21:34:39.213Z,15.06
2019-05-17T21:37:06.754Z,14.94
2019-05-17T21:39:33.829Z,14.84
2019-05-17T21:42:01.252Z,14.72
2019-05-17T21:44:28.469Z,14.85
2019-05-17T21:47:04.331Z,14.83
2019-05-17T21:49:24.685Z,14.69
2019-05-17T21:51:51.969Z,14.60
2019-05-17T21:54:19.144Z,14.53
2019-05-17T21:56:46.290Z,14.48
2019-05-17T21:59:13.579Z,14.42
2019-05-17T22:01:40.795Z,14.34
2019-05-17T22:04:08.365Z,14.32
2019-05-17T22:06:35.960Z,14.30
2019-05-17T22:09:05.535Z,14.22
2019-05-17T22:11:33.482Z,14.17
2019-05-17T22:14:00.690Z,14.29
2019-05-17T22:16:28.105Z,14.24
2019-05-17T22:18:55.322Z,14.16
2019-05-17T22:21:22.422Z,14.10
2019-05-17T22:23:49.589Z,14.01
2019-05-17T22:26:16.836Z,13.95
2019-05-17T22:28:44.008Z,13.92
2019-05-17T22:31:11.191Z,13.89
2019-05-17T22:33:38.397Z,13.85
2019-05-17T22:36:05.766Z,13.72
2019-05-17T22:38:32.929Z,13.59
2019-05-17T22:41:00.161Z,13.47
2019-05-17T22:43:27.455Z,13.35
2019-05-17T22:45:54.642Z,13.28
2019-05-17T22:48:21.773Z,13.18
2019-05-17T22:50:48.889Z,13.07
2019-05-17T22:53:16.111Z,13.00
2019-05-17T22:55:43.305Z,12.94
2019-05-17T22:58:10.451Z,12.86
2019-05-17T23:00:37.699Z,12.79
2019-05-17T23:03:04.775Z,12.71
2019-05-17T23:05:31.864Z,12.65
2019-05-17T23:07:59.433Z,12.57
2019-05-17T23:10:26.665Z,12.49
2019-05-17T23:12:53.956Z,12.42
2019-05-17T23:15:21.129Z,12.37
2019-05-17T23:17:48.220Z,12.24
2019-05-17T23:20:15.528Z,12.12
2019-05-17T23:22:42.773Z,12.01
2019-05-17T23:25:09.971Z,11.98
2019-05-17T23:27:37.213Z,11.93
2019-05-17T23:30:04.751Z,11.91
2019-05-17T23:32:32.215Z,11.92
2019-05-17T23:34:59.451Z,11.93
2019-05-17T23:37:26.631Z,11.92
2019-05-17T23:39:53.725Z,11.89
2019-05-17T23:42:21.110Z,11.94
2019-05-17T23:44:48.159Z,12.02
2019-05-17T23:47:15.314Z,12.08
2019-05-17T23:49:42.512Z,12.24
2019-05-17T23:52:09.692Z,12.48
2019-05-17T23:54:36.922Z,12.59
2019-05-17T23:57:04.179Z,12.69
2019-05-17T23:59:31.312Z,12.67
